Time;durP1;ratioP1;P1;durP2;ratioP2;P2;SDS_P1;SDS_P2;PMS_P1;PMS_P2;Temp;Humidity;BMP_temperature;BMP_pressure;BME280_temperature;BME280_humidity;BME280_pressure;Samples;Min_cycle;Max_cycle;Signal;HPM_P1;HPM_P2
2022/04/24 00:05:05;;;;;;;2.17;1.52;;;;;;;19.86;31.22;100060.22;16132798;19;130149;-54
2022/04/24 00:10:26;;;;;;;2.13;1.67;;;;;;;19.83;30.99;100056.03;16131765;19;129839;-54
2022/04/24 00:15:48;;;;;;;2.30;1.58;;;;;;;19.82;31.31;100049.69;16133993;19;129291;-56
2022/04/24 00:21:10;;;;;;;2.60;1.63;;;;;;;19.79;31.14;100047.44;16134491;19;129606;-56
2022/04/24 00:26:31;;;;;;;1.48;1.35;;;;;;;19.78;31.35;100042.19;16130276;19;129601;-54
2022/04/24 00:31:53;;;;;;;1.75;1.40;;;;;;;19.77;31.27;100040.50;16130896;19;129469;-55
2022/04/24 00:37:15;;;;;;;1.27;1.10;;;;;;;19.75;30.83;100038.03;16133845;19;128890;-53
2022/04/24 00:42:37;;;;;;;1.20;1.10;;;;;;;19.73;30.81;100044.94;16133032;19;130401;-55
2022/04/24 00:47:59;;;;;;;1.73;1.00;;;;;;;19.73;31.12;100042.16;16129093;19;131304;-56
2022/04/24 00:53:21;;;;;;;2.05;1.30;;;;;;;19.71;31.08;100042.44;16133360;19;129507;-53
2022/04/24 00:58:43;;;;;;;1.77;1.20;;;;;;;19.69;31.02;100045.47;16126010;19;129064;-55
2022/04/24 01:04:07;;;;;;;1.25;1.15;;;;;;;19.67;31.06;100042.16;16130858;19;129483;-55
2022/04/24 01:09:32;;;;;;;1.58;1.33;;;;;;;19.65;30.64;100041.59;16130263;19;129166;-54
2022/04/24 01:14:54;;;;;;;1.13;1.00;;;;;;;19.64;30.66;100047.41;16139019;19;129934;-55
2022/04/24 01:20:19;;;;;;;1.13;0.95;;;;;;;19.64;31.04;100053.81;16145947;19;132094;-53
2022/04/24 01:25:41;;;;;;;;;;;;;;;19.59;31.06;100048.25;16144821;19;129733;-54
2022/04/24 01:31:03;;;;;;;1.48;1.00;;;;;;;19.60;30.66;100036.03;16145776;19;130084;-55
2022/04/24 01:36:25;;;;;;;1.00;0.90;;;;;;;19.60;30.74;100046.31;16143844;19;128960;-56
2022/04/24 01:41:47;;;;;;;1.27;1.17;;;;;;;19.59;31.10;100045.47;16144138;19;129954;-54
2022/04/24 01:47:09;;;;;;;1.63;0.85;;;;;;;19.57;30.72;100041.31;16141082;19;129631;-54
2022/04/24 01:52:31;;;;;;;1.80;0.93;;;;;;;19.55;30.88;100044.38;16142187;19;129341;-54
2022/04/24 01:57:53;;;;;;;0.80;0.80;;;;;;;19.55;31.11;100046.28;16138130;19;128980;-54
2022/04/24 02:03:14;;;;;;;1.20;1.08;;;;;;;19.53;30.97;100041.03;16138351;19;129432;-55
2022/04/24 02:08:36;;;;;;;1.00;0.90;;;;;;;19.52;30.77;100042.13;16136258;19;129716;-52
2022/04/24 02:13:58;;;;;;;1.00;0.80;;;;;;;19.53;30.60;100038.25;16136463;19;130183;-53
2022/04/24 02:19:20;;;;;;;1.00;0.80;;;;;;;19.51;30.82;100038.50;16139092;19;130044;-54
2022/04/24 02:24:42;;;;;;;2.35;0.70;;;;;;;19.50;30.82;100036.03;16141119;19;129206;-52
2022/04/24 02:30:05;;;;;;;1.08;0.75;;;;;;;19.48;31.01;100036.31;16135184;19;129325;-54
2022/04/24 02:35:28;;;;;;;1.17;0.80;;;;;;;19.47;30.90;100040.19;16140850;19;129844;-54
2022/04/24 02:40:50;;;;;;;1.17;0.70;;;;;;;19.47;30.64;100042.97;16141400;19;129793;-56
2022/04/24 02:46:12;;;;;;;0.93;0.90;;;;;;;19.45;30.79;100045.16;16141960;19;129576;-50
2022/04/24 02:51:34;;;;;;;1.17;1.08;;;;;;;19.43;30.63;100038.22;16142045;19;128985;-56
2022/04/24 02:56:55;;;;;;;1.40;1.00;;;;;;;19.43;30.40;100029.91;16137559;19;130273;-52
2022/04/24 03:02:17;;;;;;;0.93;0.82;;;;;;;19.42;30.37;100031.03;16138888;19;130194;-54
2022/04/24 03:07:40;;;;;;;1.38;1.10;;;;;;;19.40;30.58;100038.78;16136359;19;129613;-55
2022/04/24 03:13:01;;;;;;;1.23;0.85;;;;;;;19.39;30.55;100046.25;16136631;19;130433;-55
2022/04/24 03:18:23;;;;;;;0.98;0.85;;;;;;;19.37;30.42;100037.38;16138874;19;130280;-54
2022/04/24 03:23:45;;;;;;;0.98;0.98;;;;;;;19.35;30.34;100037.63;16136840;19;130856;-50
2022/04/24 03:29:09;;;;;;;1.10;1.00;;;;;;;19.35;30.33;100045.97;16133963;19;129543;-55
2022/04/24 03:34:31;;;;;;;1.08;0.98;;;;;;;19.34;30.08;100047.06;16137367;19;129061;-53
2022/04/24 03:39:53;;;;;;;1.10;1.00;;;;;;;19.32;30.55;100040.94;16138355;19;128900;-53
2022/04/24 03:45:14;;;;;;;1.10;1.00;;;;;;;19.31;30.55;100047.63;16136598;19;131907;-52
2022/04/24 03:50:36;;;;;;;1.30;1.20;;;;;;;19.31;30.09;100050.41;16138027;19;130463;-56
2022/04/24 03:55:58;;;;;;;1.38;0.93;;;;;;;19.29;30.48;100052.63;16134261;19;129334;-52
2022/04/24 04:01:19;;;;;;;1.20;1.10;;;;;;;19.28;30.21;100059.25;16131724;19;129190;-55
2022/04/24 04:06:41;;;;;;;1.23;1.10;;;;;;;19.27;30.23;100063.13;16135173;19;129447;-56
2022/04/24 04:12:06;;;;;;;1.40;1.00;;;;;;;19.27;30.24;100062.28;16133353;19;129641;-55
2022/04/24 04:17:28;;;;;;;1.58;1.23;;;;;;;19.25;30.40;100073.66;16135847;19;129188;-53
2022/04/24 04:22:51;;;;;;;1.00;0.90;;;;;;;19.24;30.10;100072.00;16134341;19;130099;-52
2022/04/24 04:28:13;;;;;;;2.22;1.00;;;;;;;19.22;30.31;100071.44;16131626;19;130166;-56
2022/04/24 04:33:35;;;;;;;1.23;1.13;;;;;;;19.22;30.34;100079.75;16134069;19;129016;-54
2022/04/24 04:38:57;;;;;;;1.48;1.20;;;;;;;19.21;30.37;100078.94;16132129;19;129141;-53
2022/04/24 04:44:18;;;;;;;1.33;1.00;;;;;;;19.20;30.26;100081.94;16139143;19;129266;-50
2022/04/24 04:49:40;;;;;;;2.00;1.10;;;;;;;19.20;30.28;100090.28;16142703;19;129105;-54
2022/04/24 04:55:03;;;;;;;1.40;1.23;;;;;;;19.18;30.15;100090.53;16145991;19;129760;-55
2022/04/24 05:00:25;;;;;;;1.10;1.00;;;;;;;19.19;30.28;100102.47;16147536;19;129997;-56
2022/04/24 05:05:46;;;;;;;1.85;1.20;;;;;;;19.17;30.11;100110.22;16143954;19;129707;-52
2022/04/24 05:11:09;;;;;;;0.90;0.88;;;;;;;19.17;30.27;100127.66;16144262;19;130101;-54
2022/04/24 05:16:31;;;;;;;1.73;1.42;;;;;;;19.15;30.23;100129.06;16145732;19;130448;-52
2022/04/24 05:21:53;;;;;;;1.02;0.93;;;;;;;19.17;30.05;100143.47;16147006;19;129367;-56
2022/04/24 05:27:15;;;;;;;1.92;1.00;;;;;;;19.16;30.34;100142.63;16144119;19;130434;-53
2022/04/24 05:32:47;;;;;;;1.25;1.00;;;;;;;19.15;30.15;100146.50;16146859;19;128953;-54
2022/04/24 05:38:09;;;;;;;1.85;1.27;;;;;;;19.13;30.41;100153.44;16145658;19;129404;-54
2022/04/24 05:43:31;;;;;;;1.40;1.30;;;;;;;19.15;29.90;100163.13;16143081;19;129448;-56
2022/04/24 05:48:54;;;;;;;1.08;1.00;;;;;;;19.16;30.00;100161.22;16143130;19;130153;-55
2022/04/24 05:54:16;;;;;;;3.75;1.20;;;;;;;19.28;30.24;100159.09;16144944;19;129905;-54
2022/04/24 05:59:38;;;;;;;6.18;1.40;;;;;;;19.62;29.81;100160.63;16139170;19;129690;-54
2022/04/24 06:05:00;;;;;;;1.63;1.38;;;;;;;19.97;29.73;100162.66;16139344;19;129357;-55
2022/04/24 06:10:22;;;;;;;3.28;1.80;;;;;;;20.25;29.12;100163.31;16137937;19;129358;-55
2022/04/24 06:15:43;;;;;;;6.80;2.00;;;;;;;20.48;29.12;100172.22;16135716;19;129843;-57
2022/04/24 06:21:06;;;;;;;2.28;1.63;;;;;;;20.64;28.72;100164.69;16137740;19;129481;-53
2022/04/24 06:26:28;;;;;;;2.20;1.52;;;;;;;20.71;28.38;100165.28;16139752;19;128996;-53
2022/04/24 06:31:49;;;;;;;2.13;1.65;;;;;;;20.71;28.49;100169.97;16142292;19;130070;-56
2022/04/24 06:37:11;;;;;;;2.58;1.90;;;;;;;20.67;28.48;100175.25;16138815;19;129823;-55
2022/04/24 06:42:34;;;;;;;3.95;2.10;;;;;;;20.64;28.77;100175.81;16140082;19;129750;-57
2022/04/24 06:47:58;;;;;;;2.42;1.75;;;;;;;20.59;28.53;100173.88;16138720;19;129141;-55
2022/04/24 06:53:20;;;;;;;3.10;2.28;;;;;;;20.57;28.72;100170.53;16139786;19;129129;-56
2022/04/24 06:58:42;;;;;;;3.20;1.80;;;;;;;20.56;28.66;100171.66;16135398;19;129524;-57
2022/04/24 07:04:08;;;;;;;2.40;1.90;;;;;;;20.53;28.36;100183.34;16141144;19;129645;-57
2022/04/24 07:09:29;;;;;;;2.40;1.85;;;;;;;20.53;28.34;100176.94;16134674;19;128980;-57
2022/04/24 07:14:51;;;;;;;2.75;2.15;;;;;;;20.52;28.83;100180.81;16134465;19;129412;-57
2022/04/24 07:20:15;;;;;;;2.50;1.80;;;;;;;20.52;28.51;100187.22;16136980;19;129227;-55
2022/04/24 07:25:43;;;;;;;9.15;2.60;;;;;;;20.60;28.59;100194.19;16135271;19;129372;-55
2022/04/24 07:31:06;;;;;;;9.60;1.98;;;;;;;20.65;29.21;100199.72;16132055;19;130482;-54
2022/04/24 07:36:28;;;;;;;7.82;2.60;;;;;;;20.68;28.83;100199.16;16138385;19;129353;-50
2022/04/24 07:41:50;;;;;;;10.48;2.40;;;;;;;20.69;29.21;100205.56;16127815;19;128927;-54
2022/04/24 07:47:11;;;;;;;9.73;2.20;;;;;;;20.65;29.50;100212.78;16128141;19;130126;-53
2022/04/24 07:52:33;;;;;;;7.57;1.95;;;;;;;20.61;29.25;100204.19;16132417;19;130486;-50
2022/04/24 07:57:59;;;;;;;7.05;2.13;;;;;;;20.62;29.96;100205.00;16130304;19;129404;-56
2022/04/24 08:03:21;;;;;;;17.98;2.58;;;;;;;20.63;30.00;100207.50;16130598;19;129821;-57
2022/04/24 08:08:43;;;;;;;3.33;1.77;;;;;;;20.79;29.63;100204.75;16127245;19;129942;-52
2022/04/24 08:14:05;;;;;;;7.63;2.30;;;;;;;21.02;29.17;100208.91;16124921;19;130477;-55
2022/04/24 08:19:27;;;;;;;3.38;1.92;;;;;;;21.25;28.99;100223.34;16135082;19;129800;-49
2022/04/24 08:24:48;;;;;;;5.65;1.98;;;;;;;21.41;29.11;100219.41;16147991;19;130232;-52
2022/04/24 08:30:11;;;;;;;2.95;1.75;;;;;;;21.52;28.93;100217.44;16139722;19;129160;-56
2022/04/24 08:35:33;;;;;;;3.75;1.90;;;;;;;21.61;28.96;100223.25;16146217;19;129625;-57
2022/04/24 08:40:59;;;;;;;3.08;1.90;;;;;;;21.70;28.73;100229.91;16147291;19;129610;-55
2022/04/24 08:46:21;;;;;;;;;;;;;;;21.72;28.48;100227.66;16149479;19;129210;-51
2022/04/24 08:51:44;;;;;;;4.57;2.20;;;;;;;21.76;28.72;100231.56;16145042;19;129487;-55
2022/04/24 08:57:06;;;;;;;3.55;1.80;;;;;;;21.75;28.58;100232.69;16141190;19;130161;-55
2022/04/24 09:02:27;;;;;;;4.68;1.80;;;;;;;21.79;28.69;100233.75;16143806;19;130236;-54
2022/04/24 09:07:52;;;;;;;3.75;1.60;;;;;;;21.86;28.42;100232.63;16144391;19;129748;-52
2022/04/24 09:14:14;;;;;;;2.47;1.67;;;;;;;21.92;28.12;100225.91;16139376;19;129931;-55
2022/04/24 09:19:25;;;;;;;3.45;1.70;;;;;;;21.97;28.42;100228.69;16138734;19;129353;-50
2022/04/24 09:24:52;;;;;;;2.38;1.65;;;;;;;21.99;27.82;100232.00;16139169;19;129239;-55
2022/04/24 09:30:15;;;;;;;4.32;2.05;;;;;;;22.01;28.08;100224.22;16130512;19;130570;-53
2022/04/24 09:35:39;;;;;;;3.10;1.67;;;;;;;22.03;27.99;100227.50;16133746;19;130259;-50
2022/04/24 09:41:01;;;;;;;4.82;1.90;;;;;;;22.04;28.02;100226.41;16136459;19;129485;-52
2022/04/24 09:46:30;;;;;;;5.72;1.85;;;;;;;22.06;27.65;100226.94;16134169;19;129086;-53
2022/04/24 09:51:51;;;;;;;2.58;1.60;;;;;;;22.07;28.18;100228.63;16131184;19;130051;-56
2022/04/24 09:57:14;;;;;;;2.03;1.52;;;;;;;22.07;27.64;100225.00;16134541;19;129502;-55
2022/04/24 10:02:36;;;;;;;2.25;1.90;;;;;;;22.07;27.86;100223.03;16133361;19;129679;-55
2022/04/24 10:08:01;;;;;;;6.75;1.73;;;;;;;22.06;27.88;100215.81;16128906;19;131524;-53
2022/04/24 10:13:23;;;;;;;;;;;;;;;21.98;27.73;100224.78;15981830;19;2955417;-53
2022/04/24 10:19:02;;;;;;;6.03;1.88;;;;;;;21.95;27.94;100233.69;16140904;19;130057;-52
2022/04/24 10:24:24;;;;;;;4.20;1.80;;;;;;;21.83;28.59;100218.16;16138017;19;129239;-54
2022/04/24 10:29:50;;;;;;;5.20;2.00;;;;;;;21.76;28.65;100219.56;16136855;19;129092;-56
2022/04/24 10:35:18;;;;;;;4.10;1.80;;;;;;;21.68;28.72;100226.56;16138858;19;132320;-54
2022/04/24 10:40:39;;;;;;;4.63;1.80;;;;;;;21.60;28.46;100236.31;16137616;19;129049;-52
2022/04/24 10:46:02;;;;;;;4.30;2.05;;;;;;;21.52;28.76;100229.44;16138684;19;129742;-58
2022/04/24 10:51:32;;;;;;;2.55;1.80;;;;;;;21.45;28.44;100228.03;16134757;19;129203;-55
2022/04/24 10:56:53;;;;;;;2.85;2.08;;;;;;;21.37;28.47;100232.22;16139410;19;129219;-53
2022/04/24 11:02:21;;;;;;;3.00;2.10;;;;;;;21.33;28.32;100231.09;16137058;19;129731;-56
2022/04/24 11:07:43;;;;;;;10.55;2.35;;;;;;;21.22;28.50;100225.56;16136340;19;129459;-49
2022/04/24 11:13:08;;;;;;;9.80;2.40;;;;;;;21.15;28.27;100225.03;16133932;19;130504;-53
2022/04/24 11:18:30;;;;;;;5.47;2.30;;;;;;;21.12;28.14;100225.59;16135097;19;129345;-52
2022/04/24 11:23:58;;;;;;;4.80;2.30;;;;;;;21.11;28.29;100232.25;16137726;19;129482;-54
2022/04/24 11:29:20;;;;;;;2.90;2.20;;;;;;;21.06;28.24;100224.75;16133350;19;129215;-55
2022/04/24 11:34:43;;;;;;;2.70;2.05;;;;;;;21.01;28.42;100219.19;16132436;19;129548;-51
2022/04/24 11:40:05;;;;;;;4.20;2.30;;;;;;;20.94;28.37;100221.44;16138086;19;131153;-53
2022/04/24 11:51:18;;;;;;;7.88;2.70;;;;;;;20.89;27.98;100219.50;16130250;19;129042;-53
2022/04/24 11:57:00;;;;;;;6.85;2.92;;;;;;;20.85;28.31;100237.00;16130024;19;129756;-52
2022/04/24 12:02:26;;;;;;;11.23;2.72;;;;;;;20.81;28.23;100236.72;16133754;19;130894;-55
2022/04/24 12:07:55;;;;;;;10.23;2.47;;;;;;;20.80;28.02;100237.81;16130786;19;129775;-51
2022/04/24 12:13:22;;;;;;;9.82;4.63;;;;;;;20.79;28.19;100235.34;16127446;19;129857;-55
2022/04/24 12:18:57;;;;;;;9.57;4.50;;;;;;;20.79;28.40;100238.09;16133556;19;129310;-53
2022/04/24 12:24:19;;;;;;;12.70;5.20;;;;;;;20.79;28.88;100252.88;16131937;19;129499;-55
2022/04/24 12:29:48;;;;;;;7.68;4.10;;;;;;;20.84;29.21;100249.25;16127623;19;129800;-53
2022/04/24 12:35:25;;;;;;;5.72;3.75;;;;;;;20.85;29.52;100253.69;16132985;19;130846;-53
2022/04/24 12:40:59;;;;;;;6.65;3.60;;;;;;;20.84;29.60;100257.59;16133221;19;130083;-48
2022/04/24 12:46:21;;;;;;;7.45;3.00;;;;;;;20.83;29.53;100262.28;16132204;19;129334;-54
2022/04/24 12:51:43;;;;;;;9.63;3.50;;;;;;;20.83;29.89;100251.16;16126599;19;129014;-55
2022/04/24 12:57:06;;;;;;;8.20;2.70;;;;;;;20.82;30.18;100268.97;16131074;19;130710;-50
2022/04/24 13:02:30;;;;;;;4.38;2.65;;;;;;;20.82;29.61;100259.81;16132361;19;130257;-49
2022/04/24 13:07:52;;;;;;;2.80;2.47;;;;;;;20.81;29.87;100267.28;16143993;19;130672;-53
2022/04/24 13:13:14;;;;;;;5.15;2.35;;;;;;;20.81;30.38;100269.25;16143409;19;129145;-52
2022/04/24 13:18:42;;;;;;;5.13;2.65;;;;;;;20.78;30.15;100265.09;16143523;19;129790;-51
2022/04/24 13:24:04;;;;;;;6.97;2.30;;;;;;;20.71;29.85;100265.34;16143356;19;130414;-52
2022/04/24 13:29:28;;;;;;;4.18;2.28;;;;;;;20.68;30.01;100273.38;16143744;19;129637;-53
2022/04/24 13:34:51;;;;;;;3.63;2.50;;;;;;;20.67;29.82;100268.94;16143086;19;130539;-46
2022/04/24 13:40:14;;;;;;;3.60;2.25;;;;;;;20.66;29.62;100267.28;16140889;19;130398;-53
2022/04/24 13:45:36;;;;;;;4.03;2.08;;;;;;;20.62;29.62;100277.25;16144816;19;129169;-47
2022/04/24 13:51:17;;;;;;;2.47;1.90;;;;;;;20.60;29.90;100281.16;16139731;19;129820;-52
2022/04/24 13:56:39;;;;;;;3.33;2.28;;;;;;;20.61;29.42;100276.44;16139637;19;129961;-48
2022/04/24 14:02:01;;;;;;;1.83;1.63;;;;;;;20.56;29.73;100280.03;16139735;19;129917;-48
2022/04/24 14:07:23;;;;;;;3.72;1.73;;;;;;;20.55;29.39;100289.50;16141313;19;129419;-46
2022/04/24 14:12:45;;;;;;;4.72;1.95;;;;;;;20.55;29.53;100291.44;16133435;19;130488;-45
2022/04/24 14:18:07;;;;;;;3.80;2.10;;;;;;;20.55;29.94;100295.06;16134629;19;130241;-48
2022/04/24 14:23:29;;;;;;;3.88;2.20;;;;;;;20.55;29.73;100299.75;16139725;19;129387;-47
2022/04/24 14:28:50;;;;;;;3.17;2.30;;;;;;;20.55;29.94;100288.63;16133631;19;130051;-47
2022/04/24 14:34:13;;;;;;;3.03;1.90;;;;;;;20.54;29.49;100298.94;16136483;19;129576;-50
2022/04/24 14:39:35;;;;;;;4.28;2.15;;;;;;;20.57;29.90;100289.22;16136668;19;129356;-47
2022/04/24 14:45:04;;;;;;;5.80;1.90;;;;;;;20.59;29.70;100296.16;16134768;19;129144;-48
2022/04/24 14:56:11;;;;;;;2.92;1.63;;;;;;;20.63;29.77;100306.72;16134457;19;130474;-44
2022/04/24 15:01:33;;;;;;;3.40;1.52;;;;;;;20.66;30.25;100311.75;16137601;19;129504;-48
2022/04/24 15:06:55;;;;;;;3.15;1.92;;;;;;;20.66;30.15;100315.34;16132917;19;130848;-50
2022/04/24 15:12:16;;;;;;;2.97;1.73;;;;;;;20.66;30.00;100322.84;16129984;19;129580;-51
2022/04/24 15:17:38;;;;;;;2.58;1.75;;;;;;;20.64;29.73;100325.06;16131093;19;131050;-51
2022/04/24 15:23:02;;;;;;;3.83;1.90;;;;;;;20.58;29.96;100319.50;16130952;19;130744;-53
2022/04/24 15:28:25;;;;;;;2.38;1.80;;;;;;;20.58;29.73;100325.03;16125583;19;129400;-51
2022/04/24 15:33:46;;;;;;;2.15;1.55;;;;;;;20.57;29.97;100333.66;16134077;19;129388;-55
2022/04/24 15:39:08;;;;;;;1.88;1.70;;;;;;;20.56;29.97;100341.16;16128852;19;129463;-47
2022/04/24 15:45:10;;;;;;;1.60;1.48;;;;;;;20.57;29.29;100348.38;16128341;19;130559;-51
2022/04/24 15:50:14;;;;;;;2.42;1.70;;;;;;;20.53;29.29;100346.44;16129482;19;129693;-50
2022/04/24 15:55:36;;;;;;;2.67;1.80;;;;;;;20.50;29.20;100346.97;16132844;19;130518;-52
2022/04/24 16:00:58;;;;;;;4.10;2.03;;;;;;;20.48;29.07;100352.81;16126815;19;129494;-54
2022/04/24 16:06:20;;;;;;;3.10;1.90;;;;;;;20.49;29.30;100362.81;16130349;19;130270;-47
2022/04/24 16:11:41;;;;;;;5.57;1.70;;;;;;;20.48;29.10;100358.38;16130011;19;129862;-53
2022/04/24 16:17:03;;;;;;;3.22;1.92;;;;;;;20.43;28.82;100364.75;16133273;19;129634;-51
2022/04/24 16:22:25;;;;;;;3.25;2.20;;;;;;;20.41;29.01;100366.97;16131362;19;131340;-54
2022/04/24 16:27:47;;;;;;;5.47;2.28;;;;;;;20.40;28.74;100364.47;16131397;19;129169;-52
2022/04/24 16:33:09;;;;;;;5.75;2.40;;;;;;;20.38;28.46;100372.22;16125438;19;130014;-53
2022/04/24 16:38:30;;;;;;;2.95;1.90;;;;;;;20.40;28.40;100375.56;16133587;19;129158;-51
2022/04/24 16:43:52;;;;;;;2.47;1.83;;;;;;;20.38;28.43;100373.06;16147578;19;129185;-52
2022/04/24 16:49:14;;;;;;;2.13;1.77;;;;;;;20.36;28.14;100375.28;16144393;19;129370;-49
2022/04/24 17:00:16;;;;;;;4.63;1.80;;;;;;;20.35;27.87;100378.31;16143211;19;129457;-51
2022/04/24 17:05:38;;;;;;;3.45;1.70;;;;;;;20.33;28.27;100380.53;16141362;19;129713;-50
2022/04/24 17:11:01;;;;;;;2.83;1.67;;;;;;;20.34;27.76;100376.66;16139521;19;129951;-53
2022/04/24 17:16:23;;;;;;;4.70;1.55;;;;;;;20.33;27.78;100386.09;16144424;19;129730;-52
2022/04/24 17:21:46;;;;;;;1.85;1.60;;;;;;;20.34;27.83;100390.53;16142214;19;129321;-54
2022/04/24 17:27:08;;;;;;;2.33;1.63;;;;;;;20.33;27.60;100392.50;16144720;19;129224;-50
2022/04/24 17:32:30;;;;;;;3.03;1.38;;;;;;;20.33;27.58;100391.66;16138963;19;130523;-54
2022/04/24 17:37:52;;;;;;;2.67;1.40;;;;;;;20.31;27.84;100396.66;16140219;19;129192;-55
2022/04/24 17:43:14;;;;;;;2.83;1.45;;;;;;;20.31;28.27;100405.00;16138947;19;130613;-55
2022/04/24 17:48:37;;;;;;;5.30;1.65;;;;;;;20.28;28.24;100412.75;16144442;19;129978;-53
2022/04/24 17:53:59;;;;;;;2.35;1.48;;;;;;;20.24;28.78;100419.94;16137449;19;129482;-57
2022/04/24 17:59:22;;;;;;;1.83;1.40;;;;;;;20.22;28.97;100424.09;16138680;19;129706;-58
2022/04/24 18:04:45;;;;;;;1.85;1.10;;;;;;;20.19;29.15;100424.63;16132709;19;129536;-53
2022/04/24 18:10:09;;;;;;;4.05;1.63;;;;;;;20.18;29.50;100429.38;16138532;19;130479;-54
2022/04/24 18:15:31;;;;;;;1.38;1.10;;;;;;;20.14;29.56;100437.38;16135515;19;129788;-54
2022/04/24 18:20:54;;;;;;;2.08;1.25;;;;;;;20.12;29.84;100441.53;16139960;19;129487;-54
2022/04/24 18:26:15;;;;;;;6.90;1.63;;;;;;;20.13;30.45;100455.16;16133291;19;131227;-53
2022/04/24 18:31:39;;;;;;;8.68;1.30;;;;;;;20.21;31.73;100459.38;16137233;19;129704;-56
2022/04/24 18:42:46;;;;;;;10.35;1.52;;;;;;;20.75;31.79;100471.31;16140021;19;129836;-54
2022/04/24 18:48:09;;;;;;;3.40;1.15;;;;;;;21.05;32.11;100492.00;16139242;19;129150;-53
2022/04/24 18:53:31;;;;;;;6.57;1.30;;;;;;;21.29;31.57;100495.13;16134803;19;130212;-53
2022/04/24 18:58:56;;;;;;;1.80;1.00;;;;;;;21.44;32.27;100505.44;16135777;19;129688;-55
2022/04/24 19:15:38;;;;;;;4.65;1.00;;;;;;;21.43;32.88;100537.16;16131251;19;129449;-56
2022/04/24 19:21:00;;;;;;;3.15;1.30;;;;;;;21.37;33.03;100541.88;16127895;19;129825;-58
2022/04/24 19:26:21;;;;;;;2.08;0.70;;;;;;;21.32;32.92;100552.16;16133385;19;129329;-54
2022/04/24 19:31:44;;;;;;;1.52;1.10;;;;;;;21.22;33.10;100567.72;16131510;19;129039;-56
2022/04/24 19:37:07;;;;;;;11.05;1.00;;;;;;;21.17;32.84;100581.59;16136338;19;129843;-58
2022/04/24 19:42:29;;;;;;;10.38;1.23;;;;;;;21.03;32.77;100591.59;16132926;19;129491;-58
2022/04/24 19:53:31;;;;;;;3.08;1.00;;;;;;;20.78;33.30;100598.69;16128129;19;129552;-59
2022/04/24 19:58:53;;;;;;;3.72;1.00;;;;;;;20.69;32.90;100614.13;16131098;19;129854;-57
2022/04/24 20:04:15;;;;;;;3.63;1.20;;;;;;;20.63;32.79;100613.28;16136363;19;130427;-58
2022/04/24 20:09:37;;;;;;;4.60;1.10;;;;;;;20.56;33.22;100612.69;16135866;19;130862;-59
2022/04/24 20:14:59;;;;;;;4.78;1.10;;;;;;;20.50;33.33;100622.91;16137040;19;129994;-57
2022/04/24 20:20:21;;;;;;;4.68;1.00;;;;;;;20.47;33.21;100634.56;16149672;19;129248;-59
2022/04/24 20:25:43;;;;;;;3.72;1.02;;;;;;;20.43;33.53;100636.22;16148800;19;129782;-59
2022/04/24 20:31:05;;;;;;;2.08;1.02;;;;;;;20.38;33.02;100633.38;16148045;19;129230;-57
2022/04/24 20:36:27;;;;;;;2.28;1.02;;;;;;;20.36;33.05;100653.09;16149049;19;129514;-55
2022/04/24 20:41:49;;;;;;;1.23;0.90;;;;;;;20.33;33.19;100652.78;16147501;19;129098;-59
2022/04/24 20:47:11;;;;;;;1.20;0.90;;;;;;;20.32;33.41;100651.09;16144964;19;129815;-58
2022/04/24 20:52:33;;;;;;;2.58;1.02;;;;;;;20.30;33.43;100654.16;16146027;19;129311;-58
2022/04/24 20:57:55;;;;;;;3.65;0.98;;;;;;;20.26;33.15;100658.53;16147969;19;129956;-58
2022/04/24 21:03:17;;;;;;;5.25;0.93;;;;;;;20.21;33.49;100656.56;16146453;19;130716;-59
2022/04/24 21:08:39;;;;;;;1.52;0.90;;;;;;;20.19;33.38;100663.50;16146954;19;130148;-59
2022/04/24 21:14:01;;;;;;;1.70;0.90;;;;;;;20.15;33.48;100657.63;16141569;19;130315;-58
2022/04/24 21:19:43;;;;;;;3.80;1.10;;;;;;;20.10;33.32;100671.47;16144928;19;129197;-58
2022/04/24 21:25:05;;;;;;;3.22;0.93;;;;;;;20.09;33.16;100683.66;16141796;19;129561;-58
2022/04/24 21:30:27;;;;;;;3.97;0.80;;;;;;;20.06;33.66;100681.44;16144593;19;130315;-58
2022/04/24 21:35:49;;;;;;;1.13;1.00;;;;;;;20.02;33.39;100685.81;16142065;19;131703;-57
2022/04/24 21:41:11;;;;;;;1.40;0.90;;;;;;;20.02;33.45;100699.72;16143344;19;129554;-57
2022/04/24 21:46:32;;;;;;;2.65;1.13;;;;;;;19.98;33.79;100700.19;16141015;19;129210;-59
2022/04/24 21:51:54;;;;;;;2.67;1.17;;;;;;;19.96;33.34;100710.72;16140375;19;129538;-57
2022/04/24 21:57:16;;;;;;;2.22;1.02;;;;;;;19.94;33.36;100721.25;16139233;19;130651;-58
2022/04/24 22:08:18;;;;;;;1.60;1.00;;;;;;;19.88;33.50;100729.81;16142293;19;129260;-58
2022/04/24 22:13:39;;;;;;;3.05;1.08;;;;;;;19.87;33.94;100740.06;16136141;19;129408;-58
2022/04/24 22:19:01;;;;;;;2.60;0.98;;;;;;;19.86;34.03;100748.66;16142572;19;129263;-57
2022/04/24 22:24:28;;;;;;;1.98;0.90;;;;;;;19.85;33.89;100736.69;16141719;19;129287;-58
2022/04/24 22:29:51;;;;;;;3.85;1.08;;;;;;;19.83;33.80;100749.97;16134393;19;129756;-57
2022/04/24 22:35:13;;;;;;;3.67;1.05;;;;;;;19.83;34.20;100761.09;16129849;19;129368;-59
2022/04/24 22:40:36;;;;;;;2.42;1.23;;;;;;;19.82;34.10;100757.50;16125175;19;130170;-58
2022/04/24 22:45:57;;;;;;;5.10;1.20;;;;;;;19.81;34.02;100752.22;16135292;19;128939;-59
2022/04/24 22:51:19;;;;;;;1.95;1.23;;;;;;;19.79;34.44;100759.94;16135983;19;130572;-59
2022/04/24 22:56:41;;;;;;;2.75;1.13;;;;;;;19.76;33.99;100760.47;16134968;19;129589;-59
2022/04/24 23:02:04;;;;;;;3.63;1.60;;;;;;;19.74;34.46;100763.50;16132035;19;129609;-58
2022/04/24 23:07:26;;;;;;;2.53;1.23;;;;;;;19.73;34.47;100763.75;16131136;19;131253;-59
2022/04/24 23:12:48;;;;;;;2.72;1.40;;;;;;;19.68;34.29;100761.75;16132999;19;130002;-59
2022/04/24 23:23:50;;;;;;;2.28;1.20;;;;;;;19.65;34.44;100776.13;16135173;19;130639;-59
2022/04/24 23:29:15;;;;;;;2.45;1.25;;;;;;;19.64;34.54;100778.06;16134819;19;129697;-58
2022/04/24 23:34:44;;;;;;;;;;;;;;;19.60;34.25;100774.13;16132815;19;129333;-56
2022/04/24 23:40:06;;;;;;;2.45;1.20;;;;;;;19.60;34.38;100785.22;16137287;19;129005;-59
2022/04/24 23:45:29;;;;;;;5.18;1.33;;;;;;;19.56;34.34;100786.84;16132851;19;130459;-59
2022/04/24 23:50:51;;;;;;;4.90;1.40;;;;;;;19.56;34.48;100789.63;16132593;19;129629;-58
2022/04/24 23:56:12;;;;;;;5.28;1.38;;;;;;;19.55;34.31;100787.94;16133749;19;130444;-59
